Time;durP1;ratioP1;P1;durP2;ratioP2;P2;SDS_P1;SDS_P2;PMS_P1;PMS_P2;Temp;Humidity;BMP_temperature;BMP_pressure;BME280_temperature;BME280_humidity;BME280_pressure;Samples;Min_cycle;Max_cycle;Signal;HPM_P1;HPM_P2
2021/05/23 00:00:39;;;;;;;1.95;0.38;;;8.40;99.90;;;;;;5035514;28;20029;-78
2021/05/23 00:03:11;;;;;;;1.85;0.57;;;8.50;99.90;;;;;;5018982;28;20072;-78
2021/05/23 00:05:39;;;;;;;1.20;0.40;;;8.50;99.90;;;;;;5036379;28;20038;-78
2021/05/23 00:08:11;;;;;;;1.88;0.30;;;8.60;99.90;;;;;;5019754;28;20112;-78
2021/05/23 00:10:44;;;;;;;2.60;0.60;;;8.60;99.90;;;;;;5018594;28;20552;-78
2021/05/23 00:13:13;;;;;;;1.50;0.63;;;8.60;99.90;;;;;;5036177;28;20017;-78
2021/05/23 00:15:43;;;;;;;1.30;0.60;;;8.70;99.90;;;;;;5036237;28;20040;-78
2021/05/23 00:18:10;;;;;;;1.92;0.32;;;8.70;99.90;;;;;;5037251;28;20033;-78
2021/05/23 00:20:37;;;;;;;1.85;0.43;;;8.80;99.90;;;;;;5035132;28;20044;-78
2021/05/23 00:23:04;;;;;;;0.30;0.30;;;8.80;99.90;;;;;;5036507;28;20140;-78
2021/05/23 00:25:30;;;;;;;1.42;0.30;;;8.80;99.90;;;;;;5018028;28;20540;-78
2021/05/23 00:27:56;;;;;;;4.30;0.60;;;8.70;99.90;;;;;;5033605;28;20044;-78
2021/05/23 00:30:22;;;;;;;2.15;0.50;;;8.70;99.90;;;;;;5037106;28;20021;-78
2021/05/23 00:32:50;;;;;;;0.68;0.50;;;8.70;99.90;;;;;;5037161;28;20052;-78
2021/05/23 00:35:16;;;;;;;0.93;0.40;;;8.70;99.90;;;;;;5036822;28;20021;-78
2021/05/23 00:37:42;;;;;;;0.57;0.40;;;8.70;99.90;;;;;;5037053;28;20052;-78
2021/05/23 00:40:08;;;;;;;0.40;0.30;;;8.60;99.90;;;;;;5036845;28;20025;-78
2021/05/23 00:42:35;;;;;;;1.65;0.50;;;8.60;99.90;;;;;;5035659;28;20086;-79
2021/05/23 00:45:01;;;;;;;1.52;0.50;;;8.60;99.90;;;;;;5037053;28;20037;-79
2021/05/23 00:47:27;;;;;;;1.10;0.50;;;8.60;99.90;;;;;;5037280;28;20033;-79
2021/05/23 00:49:53;;;;;;;2.00;0.30;;;8.60;99.90;;;;;;5037087;28;20159;-78
2021/05/23 00:52:19;;;;;;;0.30;0.30;;;8.70;99.90;;;;;;5036155;28;20038;-78
2021/05/23 00:54:45;;;;;;;2.05;0.50;;;8.60;99.90;;;;;;5035320;28;20049;-78
2021/05/23 00:57:11;;;;;;;0.93;0.73;;;8.70;99.90;;;;;;5015833;28;20034;-78
2021/05/23 00:59:37;;;;;;;0.30;0.30;;;8.70;99.90;;;;;;5023507;28;20041;-78
2021/05/23 01:02:27;;;;;;;0.57;0.57;;;8.70;99.90;;;;;;5013260;28;20041;-78
2021/05/23 01:04:53;;;;;;;1.25;0.60;;;8.70;99.90;;;;;;5025270;28;20044;-79
2021/05/23 01:07:19;;;;;;;0.82;0.45;;;8.80;99.90;;;;;;5017997;28;20485;-78
2021/05/23 01:09:44;;;;;;;0.60;0.30;;;8.80;99.90;;;;;;5018030;28;20033;-79
2021/05/23 01:12:22;;;;;;;0.57;0.30;;;8.70;99.90;;;;;;5035421;28;20085;-78
2021/05/23 01:14:51;;;;;;;1.38;0.70;;;8.70;99.90;;;;;;5036179;28;20067;-78
2021/05/23 01:17:20;;;;;;;1.45;0.40;;;8.70;99.90;;;;;;5036615;28;20025;-78
2021/05/23 01:20:03;;;;;;;2.17;0.50;;;8.60;99.90;;;;;;5034875;28;20099;-78
2021/05/23 01:22:56;;;;;;;1.40;0.60;;;8.60;99.90;;;;;;5027399;28;20033;-78
2021/05/23 01:25:25;;;;;;;0.20;0.20;;;8.70;99.90;;;;;;4975727;28;20474;-77
2021/05/23 01:27:52;;;;;;;0.22;0.20;;;8.70;99.90;;;;;;5010304;28;20083;-77
2021/05/23 01:30:22;;;;;;;1.70;0.50;;;8.70;99.90;;;;;;5011279;28;20791;-78
2021/05/23 01:32:50;;;;;;;0.77;0.47;;;8.70;99.90;;;;;;5022323;28;20029;-77
2021/05/23 01:35:25;;;;;;;1.33;0.43;;;8.70;99.90;;;;;;5029746;28;20030;-78
2021/05/23 01:37:59;;;;;;;1.02;0.50;;;8.80;99.90;;;;;;5030100;28;20033;-77
2021/05/23 01:40:26;;;;;;;1.60;0.57;;;8.70;99.90;;;;;;5030303;28;20561;-78
2021/05/23 01:42:52;;;;;;;2.10;0.95;;;8.70;99.90;;;;;;5032430;28;20045;-78
2021/05/23 01:45:17;;;;;;;1.85;0.63;;;8.60;99.90;;;;;;5031114;28;20040;-78
2021/05/23 01:47:44;;;;;;;1.00;0.30;;;8.60;99.90;;;;;;5032936;28;20132;-78
2021/05/23 01:50:11;;;;;;;0.30;0.30;;;8.70;99.90;;;;;;5032457;28;20033;-78
2021/05/23 01:52:45;;;;;;;2.58;0.30;;;8.70;99.90;;;;;;5031811;28;20170;-78
2021/05/23 01:55:12;;;;;;;1.88;0.55;;;8.80;99.90;;;;;;5024250;28;20470;-77
2021/05/23 01:57:38;;;;;;;0.98;0.40;;;8.80;99.90;;;;;;5032115;28;20109;-77
2021/05/23 02:00:04;;;;;;;0.35;0.32;;;8.80;99.90;;;;;;5018390;28;20459;-78
2021/05/23 02:02:35;;;;;;;0.65;0.50;;;8.80;99.90;;;;;;5033010;28;20103;-78
2021/05/23 02:05:00;;;;;;;1.98;0.40;;;8.80;99.90;;;;;;5015572;28;20076;-78
2021/05/23 02:07:26;;;;;;;2.53;0.60;;;8.80;99.90;;;;;;5033724;28;20033;-78
2021/05/23 02:09:55;;;;;;;1.65;0.52;;;8.80;99.90;;;;;;5033679;28;20120;-78
2021/05/23 02:12:21;;;;;;;2.53;0.73;;;8.80;99.90;;;;;;5032308;28;20457;-78
2021/05/23 02:14:47;;;;;;;1.55;0.47;;;8.80;99.90;;;;;;5032089;28;20033;-78
2021/05/23 02:17:13;;;;;;;2.05;0.60;;;8.80;99.90;;;;;;5033495;28;20061;-78
2021/05/23 02:19:39;;;;;;;5.05;1.05;;;8.70;99.90;;;;;;5033696;28;20042;-78
2021/05/23 02:22:04;;;;;;;4.65;0.90;;;8.70;99.90;;;;;;5031712;28;20038;-78
2021/05/23 02:24:30;;;;;;;2.60;0.57;;;8.70;99.90;;;;;;5032533;28;20067;-78
2021/05/23 02:26:56;;;;;;;2.95;0.45;;;8.70;99.90;;;;;;5032275;28;20036;-78
2021/05/23 02:29:21;;;;;;;1.55;0.70;;;8.70;99.90;;;;;;5032330;28;20029;-78
2021/05/23 02:31:47;;;;;;;2.38;0.93;;;8.70;99.90;;;;;;5032420;28;20026;-78
2021/05/23 02:34:12;;;;;;;2.28;0.50;;;8.70;99.90;;;;;;5033246;28;20548;-78
2021/05/23 02:36:38;;;;;;;3.60;0.75;;;8.70;99.90;;;;;;5031635;28;20494;-78
2021/05/23 02:39:04;;;;;;;1.77;0.73;;;8.70;99.90;;;;;;5032089;28;20040;-78
2021/05/23 02:41:30;;;;;;;1.88;0.80;;;8.60;99.90;;;;;;5032780;28;20037;-78
2021/05/23 02:43:55;;;;;;;2.17;0.70;;;8.60;99.90;;;;;;5032042;28;20088;-78
2021/05/23 02:46:21;;;;;;;2.08;0.50;;;8.60;99.90;;;;;;5033019;28;20032;-78
2021/05/23 02:48:47;;;;;;;1.88;0.70;;;8.50;99.90;;;;;;5014197;28;20038;-78
2021/05/23 02:51:12;;;;;;;0.73;0.40;;;8.50;99.90;;;;;;5036077;28;20029;-78
2021/05/23 02:53:38;;;;;;;0.75;0.52;;;8.50;99.90;;;;;;5036187;28;20033;-78
2021/05/23 02:56:04;;;;;;;1.90;0.60;;;8.40;99.90;;;;;;5031828;28;20038;-78
2021/05/23 02:58:30;;;;;;;1.30;0.63;;;8.40;99.90;;;;;;5035501;28;20033;-78
2021/05/23 03:00:55;;;;;;;1.08;0.75;;;8.40;99.90;;;;;;5037179;28;20056;-78
2021/05/23 03:03:21;;;;;;;0.57;0.40;;;8.40;99.90;;;;;;5037570;28;20124;-78
2021/05/23 03:05:48;;;;;;;1.50;0.60;;;8.40;99.90;;;;;;5036437;28;20033;-78
2021/05/23 03:08:15;;;;;;;1.27;0.57;;;8.40;99.90;;;;;;5026590;28;20029;-78
2021/05/23 03:10:52;;;;;;;1.25;0.55;;;8.50;99.90;;;;;;5037358;28;20095;-78
2021/05/23 03:13:18;;;;;;;0.85;0.40;;;8.50;99.90;;;;;;5037477;28;20037;-78
2021/05/23 03:15:43;;;;;;;2.05;0.40;;;8.50;99.90;;;;;;5015399;28;20054;-78
2021/05/23 03:18:09;;;;;;;2.08;0.55;;;8.50;99.90;;;;;;5017525;28;20052;-78
2021/05/23 03:20:37;;;;;;;1.45;0.50;;;8.60;99.90;;;;;;5029017;28;20502;-78
2021/05/23 03:23:03;;;;;;;0.77;0.40;;;8.60;99.90;;;;;;5019355;28;20128;-78
2021/05/23 03:25:30;;;;;;;1.73;0.50;;;8.60;99.90;;;;;;5016863;28;20150;-79
2021/05/23 03:27:57;;;;;;;3.33;0.60;;;8.60;99.90;;;;;;5024081;28;20041;-78
2021/05/23 03:30:26;;;;;;;2.15;0.63;;;8.60;99.90;;;;;;5036569;28;20394;-78
2021/05/23 03:32:52;;;;;;;0.93;0.73;;;8.70;99.90;;;;;;5036101;28;20040;-79
2021/05/23 03:35:18;;;;;;;1.17;0.60;;;8.70;99.90;;;;;;5036938;28;20048;-78
2021/05/23 03:37:44;;;;;;;1.58;0.70;;;8.70;99.90;;;;;;5036711;28;20021;-78
2021/05/23 03:40:14;;;;;;;1.30;0.50;;;8.80;99.90;;;;;;5035159;28;20467;-78
2021/05/23 03:42:40;;;;;;;1.40;0.50;;;8.80;99.90;;;;;;5036237;28;20033;-78
2021/05/23 03:45:07;;;;;;;0.73;0.40;;;8.80;99.90;;;;;;5035735;28;20036;-78
2021/05/23 03:47:33;;;;;;;3.22;0.60;;;8.80;99.90;;;;;;5036269;28;20044;-78
2021/05/23 03:49:59;;;;;;;0.90;0.40;;;8.80;99.90;;;;;;5019641;28;20033;-78
2021/05/23 03:52:25;;;;;;;1.45;0.55;;;8.80;99.90;;;;;;5036037;28;20053;-78
2021/05/23 03:54:50;;;;;;;1.05;0.30;;;8.90;99.90;;;;;;5037704;28;20060;-78
2021/05/23 03:57:16;;;;;;;2.53;0.60;;;8.90;99.90;;;;;;5035448;28;20044;-78
2021/05/23 03:59:42;;;;;;;0.63;0.43;;;8.90;99.90;;;;;;5036997;28;20084;-78
2021/05/23 04:02:07;;;;;;;0.73;0.47;;;8.90;99.90;;;;;;5035477;28;20033;-78
2021/05/23 04:04:49;;;;;;;2.60;0.50;;;8.90;99.90;;;;;;5037022;28;20149;-78
2021/05/23 04:07:18;;;;;;;0.57;0.40;;;9.00;99.90;;;;;;5037348;28;20042;-79
2021/05/23 04:09:49;;;;;;;1.65;0.60;;;9.00;99.90;;;;;;5018133;28;20078;-79
2021/05/23 04:12:19;;;;;;;2.13;0.35;;;9.10;99.90;;;;;;5036559;28;20060;-79
2021/05/23 04:14:45;;;;;;;2.13;0.65;;;9.10;99.90;;;;;;5026069;28;20047;-79
2021/05/23 04:17:10;;;;;;;4.93;0.88;;;9.10;99.90;;;;;;5034992;28;20045;-78
2021/05/23 04:19:36;;;;;;;0.30;0.25;;;9.20;99.90;;;;;;5031061;28;20044;-78
2021/05/23 04:22:04;;;;;;;2.03;0.60;;;9.20;99.90;;;;;;5035977;28;20033;-78
2021/05/23 04:24:30;;;;;;;1.25;0.60;;;9.20;99.90;;;;;;5016512;28;20083;-78
2021/05/23 04:26:55;;;;;;;0.55;0.30;;;9.20;99.90;;;;;;5022801;28;20036;-77
2021/05/23 04:29:21;;;;;;;3.40;0.50;;;9.20;99.90;;;;;;5012316;28;20113;-78
2021/05/23 04:31:47;;;;;;;2.35;0.70;;;9.20;99.90;;;;;;5024788;28;20025;-77
2021/05/23 04:34:13;;;;;;;3.92;0.65;;;9.20;99.90;;;;;;5022099;28;20025;-78
2021/05/23 04:36:38;;;;;;;1.98;0.50;;;9.20;99.90;;;;;;5027680;28;20018;-77
2021/05/23 04:39:06;;;;;;;0.32;0.30;;;9.30;99.90;;;;;;5028386;28;20030;-78
2021/05/23 04:41:32;;;;;;;0.77;0.47;;;9.30;99.90;;;;;;5026165;28;20041;-78
2021/05/23 04:43:58;;;;;;;1.65;0.85;;;9.30;99.90;;;;;;5028401;28;20120;-77
2021/05/23 04:46:24;;;;;;;0.95;0.40;;;9.30;99.90;;;;;;5025083;28;20124;-77
2021/05/23 04:48:50;;;;;;;1.05;0.40;;;9.30;99.90;;;;;;5027525;28;20449;-77
2021/05/23 04:51:15;;;;;;;1.00;0.30;;;9.30;99.90;;;;;;5027568;28;20137;-77
2021/05/23 04:53:41;;;;;;;3.83;0.82;;;9.40;99.90;;;;;;5010776;28;20577;-77
2021/05/23 04:56:07;;;;;;;0.40;0.38;;;9.50;99.90;;;;;;5022432;28;20040;-77
2021/05/23 04:58:33;;;;;;;0.85;0.50;;;9.50;99.90;;;;;;5028456;28;20083;-77
2021/05/23 05:00:58;;;;;;;1.25;0.65;;;9.60;99.90;;;;;;5028502;28;20707;-77
2021/05/23 05:03:24;;;;;;;3.03;0.63;;;9.70;99.90;;;;;;5026747;28;20668;-77
2021/05/23 05:05:50;;;;;;;1.52;0.32;;;9.70;99.90;;;;;;5026985;28;20046;-77
2021/05/23 05:08:15;;;;;;;3.13;0.82;;;9.70;99.90;;;;;;5029350;28;20072;-78
2021/05/23 05:10:41;;;;;;;1.08;0.70;;;9.70;99.90;;;;;;5027914;28;20116;-78
2021/05/23 05:13:07;;;;;;;0.93;0.47;;;9.80;99.90;;;;;;5010574;28;20036;-77
2021/05/23 05:15:33;;;;;;;0.50;0.30;;;9.70;99.90;;;;;;5026926;28;20038;-77
2021/05/23 05:17:58;;;;;;;1.45;0.40;;;9.80;99.90;;;;;;5028470;28;20033;-78
2021/05/23 05:20:26;;;;;;;1.45;0.75;;;9.80;99.90;;;;;;5025707;28;20056;-77
2021/05/23 05:22:52;;;;;;;0.38;0.30;;;9.90;99.90;;;;;;5025985;28;20037;-77
2021/05/23 05:25:18;;;;;;;2.15;0.40;;;9.90;99.90;;;;;;5025782;28;20547;-78
2021/05/23 05:27:44;;;;;;;0.70;0.40;;;9.90;99.90;;;;;;5028272;28;20485;-77
2021/05/23 05:30:11;;;;;;;3.28;0.50;;;9.90;99.90;;;;;;5027269;28;20040;-77
2021/05/23 05:32:37;;;;;;;2.25;0.52;;;9.90;99.90;;;;;;5028698;28;20072;-78
2021/05/23 05:35:03;;;;;;;3.30;0.50;;;9.90;99.90;;;;;;5029335;28;20049;-77
2021/05/23 05:37:29;;;;;;;0.55;0.47;;;10.00;99.90;;;;;;5028455;28;20099;-77
2021/05/23 05:39:55;;;;;;;1.60;0.40;;;10.00;99.90;;;;;;5025990;28;20033;-77
2021/05/23 05:42:21;;;;;;;0.40;0.35;;;10.10;99.90;;;;;;5027212;28;20100;-78
2021/05/23 05:44:46;;;;;;;0.75;0.50;;;10.20;99.90;;;;;;5027425;28;20029;-77
2021/05/23 05:47:13;;;;;;;0.88;0.47;;;10.30;99.90;;;;;;5025624;28;20476;-78
2021/05/23 05:49:38;;;;;;;1.15;0.50;;;10.40;99.90;;;;;;5025678;28;20033;-78
2021/05/23 05:52:06;;;;;;;0.70;0.30;;;10.50;99.90;;;;;;5024865;28;20025;-78
2021/05/23 05:54:32;;;;;;;2.30;0.55;;;10.50;99.90;;;;;;5025473;28;20034;-78
2021/05/23 05:56:59;;;;;;;0.75;0.43;;;10.60;99.90;;;;;;5026802;28;20498;-78
2021/05/23 05:59:24;;;;;;;0.90;0.30;;;10.70;99.90;;;;;;5025162;28;20017;-78
2021/05/23 06:01:50;;;;;;;0.60;0.30;;;10.60;99.90;;;;;;5025255;28;20106;-78
2021/05/23 06:04:15;;;;;;;2.13;0.40;;;10.60;99.90;;;;;;5024072;28;20036;-78
2021/05/23 06:06:41;;;;;;;0.40;0.40;;;10.60;99.90;;;;;;5025410;28;20021;-78
2021/05/23 06:09:07;;;;;;;1.70;0.52;;;10.60;99.90;;;;;;5026090;28;20497;-78
2021/05/23 06:11:32;;;;;;;1.77;0.75;;;10.60;99.90;;;;;;5026652;28;20014;-79
2021/05/23 06:13:58;;;;;;;0.63;0.50;;;10.70;99.90;;;;;;5026919;28;20040;-79
2021/05/23 06:16:25;;;;;;;2.95;0.57;;;10.70;99.90;;;;;;5025823;28;20052;-79
2021/05/23 06:18:50;;;;;;;2.42;0.60;;;10.70;99.90;;;;;;4992176;28;20033;-78
2021/05/23 06:21:16;;;;;;;1.17;0.35;;;10.60;99.90;;;;;;5025831;28;20025;-78
2021/05/23 06:23:42;;;;;;;2.38;0.40;;;10.60;99.90;;;;;;5024195;28;20026;-78
2021/05/23 06:26:13;;;;;;;0.70;0.28;;;10.70;99.90;;;;;;5024655;28;20029;-78
2021/05/23 06:28:42;;;;;;;2.85;0.55;;;10.70;99.90;;;;;;5023652;28;20443;-78
2021/05/23 06:31:09;;;;;;;1.95;0.40;;;10.80;99.90;;;;;;5025660;28;20051;-78
2021/05/23 06:33:35;;;;;;;0.30;0.30;;;10.90;99.90;;;;;;5008203;28;20029;-78
2021/05/23 06:36:01;;;;;;;0.57;0.38;;;10.90;99.90;;;;;;5023915;28;20040;-79
2021/05/23 06:38:27;;;;;;;3.50;0.40;;;10.90;99.90;;;;;;5025266;28;20042;-78
2021/05/23 06:40:53;;;;;;;1.65;0.52;;;11.00;99.90;;;;;;5008457;28;20063;-78
2021/05/23 06:43:18;;;;;;;1.30;0.43;;;11.00;99.90;;;;;;5002290;28;20120;-78
2021/05/23 06:45:44;;;;;;;0.43;0.20;;;11.00;99.90;;;;;;5026249;28;20040;-79
2021/05/23 06:48:10;;;;;;;0.40;0.32;;;11.10;99.90;;;;;;5027213;28;20033;-79
2021/05/23 06:50:37;;;;;;;0.85;0.50;;;11.10;99.90;;;;;;5027112;28;20422;-78
2021/05/23 06:53:04;;;;;;;2.58;0.80;;;11.10;99.90;;;;;;5025325;28;20124;-78
2021/05/23 06:55:30;;;;;;;1.60;0.45;;;11.10;99.90;;;;;;5024715;28;20030;-78
2021/05/23 06:57:55;;;;;;;0.30;0.30;;;11.20;99.90;;;;;;5025416;28;20044;-78
2021/05/23 07:00:24;;;;;;;1.02;0.40;;;11.20;99.90;;;;;;5005131;28;20042;-78
2021/05/23 07:02:50;;;;;;;2.00;0.40;;;11.20;99.90;;;;;;5022494;28;20040;-79
2021/05/23 07:05:16;;;;;;;0.60;0.43;;;11.20;99.90;;;;;;5023569;28;20029;-78
2021/05/23 07:07:41;;;;;;;1.52;0.32;;;11.10;99.90;;;;;;5025294;28;20028;-78
2021/05/23 07:10:08;;;;;;;0.63;0.32;;;11.10;99.90;;;;;;5026085;28;20473;-79
2021/05/23 07:12:34;;;;;;;0.40;0.30;;;11.10;99.90;;;;;;5026738;28;20113;-78
2021/05/23 07:14:59;;;;;;;2.25;0.65;;;11.20;99.90;;;;;;5026678;28;20412;-78
2021/05/23 07:17:25;;;;;;;0.43;0.40;;;11.30;99.90;;;;;;5027120;28;20120;-79
2021/05/23 07:19:51;;;;;;;2.60;0.50;;;11.50;99.90;;;;;;5027182;28;20425;-78
2021/05/23 07:22:18;;;;;;;0.30;0.30;;;11.60;99.90;;;;;;5008742;28;20041;-78
2021/05/23 07:24:44;;;;;;;0.50;0.28;;;11.90;99.90;;;;;;5026498;28;20037;-78
2021/05/23 07:27:10;;;;;;;0.95;0.30;;;12.10;99.90;;;;;;5024958;28;20159;-79
2021/05/23 07:29:35;;;;;;;1.00;0.25;;;12.30;99.90;;;;;;5028055;28;20104;-78
2021/05/23 07:32:01;;;;;;;0.80;0.50;;;12.50;99.90;;;;;;5028731;28;20021;-79
2021/05/23 07:34:27;;;;;;;2.17;0.50;;;12.90;99.90;;;;;;5027839;28;20045;-78
2021/05/23 07:36:53;;;;;;;0.30;0.30;;;13.40;99.90;;;;;;5029338;28;20024;-79
2021/05/23 07:39:19;;;;;;;1.02;0.38;;;14.00;99.90;;;;;;5012291;28;20117;-78
2021/05/23 07:41:44;;;;;;;1.13;0.20;;;14.50;99.90;;;;;;5031406;28;20030;-79
2021/05/23 07:44:10;;;;;;;0.85;0.30;;;14.90;99.90;;;;;;5033525;28;20080;-78
2021/05/23 07:46:36;;;;;;;1.60;0.20;;;15.10;99.90;;;;;;5031178;28;20052;-78
2021/05/23 07:49:02;;;;;;;0.20;0.20;;;15.20;99.90;;;;;;5032825;28;20044;-78
2021/05/23 07:51:28;;;;;;;1.17;0.45;;;15.10;99.90;;;;;;5028947;28;20040;-79
2021/05/23 07:53:53;;;;;;;1.02;0.35;;;15.20;99.90;;;;;;5025787;28;20021;-78
2021/05/23 07:56:19;;;;;;;1.13;0.32;;;15.40;99.90;;;;;;5029166;28;20076;-78
2021/05/23 07:58:45;;;;;;;1.65;0.30;;;15.60;99.90;;;;;;5032220;28;20103;-79
2021/05/23 08:01:13;;;;;;;0.93;0.50;;;15.60;99.90;;;;;;5031285;28;20033;-79
2021/05/23 08:03:39;;;;;;;0.80;0.35;;;15.70;99.90;;;;;;5031652;28;20036;-78
2021/05/23 08:06:05;;;;;;;0.65;0.30;;;15.80;99.90;;;;;;5029552;28;20037;-79
2021/05/23 08:08:31;;;;;;;1.10;0.55;;;16.10;99.90;;;;;;5025133;28;20033;-77
2021/05/23 08:10:57;;;;;;;0.30;0.30;;;16.30;99.90;;;;;;5016218;28;20091;-80
2021/05/23 08:13:23;;;;;;;0.55;0.20;;;16.30;99.90;;;;;;5013236;28;20037;-79
2021/05/23 08:15:48;;;;;;;3.35;0.40;;;16.30;99.90;;;;;;5028281;28;20030;-77
2021/05/23 08:18:17;;;;;;;0.50;0.28;;;16.40;99.90;;;;;;5026744;28;20036;-78
2021/05/23 08:20:43;;;;;;;0.40;0.20;;;16.60;99.90;;;;;;5024394;28;20029;-77
2021/05/23 08:23:09;;;;;;;0.30;0.20;;;16.60;99.90;;;;;;5007266;28;20037;-78
2021/05/23 08:25:34;;;;;;;0.20;0.20;;;16.40;99.90;;;;;;5024968;28;20033;-78
2021/05/23 08:28:00;;;;;;;0.30;0.20;;;16.40;99.90;;;;;;5027102;28;20038;-79
2021/05/23 08:30:26;;;;;;;0.70;0.22;;;16.40;97.10;;;;;;5027519;28;20203;-79
2021/05/23 08:32:52;;;;;;;0.85;0.30;;;16.10;98.30;;;;;;5027228;28;20427;-78
2021/05/23 08:35:17;;;;;;;0.20;0.20;;;15.80;98.00;;;;;;5028179;28;20025;-79
2021/05/23 08:37:43;;;;;;;0.75;0.10;;;15.50;99.50;;;;;;5029166;28;20048;-78
2021/05/23 08:40:09;;;;;;;2.45;0.30;;;15.40;99.40;;;;;;5031562;28;20044;-78
2021/05/23 08:42:37;;;;;;;0.88;0.35;;;15.20;99.00;;;;;;5032081;28;20033;-78
2021/05/23 08:45:04;;;;;;;0.88;0.43;;;15.00;98.10;;;;;;5031954;28;20025;-79
2021/05/23 08:47:38;;;;;;;0.45;0.40;;;14.80;99.90;;;;;;5029752;28;20034;-79
2021/05/23 08:50:04;;;;;;;1.02;0.40;;;14.70;99.90;;;;;;5031815;28;20113;-79
2021/05/23 08:52:30;;;;;;;0.30;0.30;;;14.60;99.90;;;;;;4996668;28;20040;-78
2021/05/23 08:54:55;;;;;;;2.17;0.68;;;14.60;99.90;;;;;;5032080;28;20112;-78
2021/05/23 08:57:23;;;;;;;0.85;0.30;;;14.50;99.90;;;;;;5031806;28;21054;-79
2021/05/23 08:59:49;;;;;;;0.25;0.20;;;14.30;99.90;;;;;;5033326;28;20068;-78
2021/05/23 09:02:15;;;;;;;0.35;0.20;;;14.20;99.90;;;;;;5032672;28;20025;-78
2021/05/23 09:04:49;;;;;;;0.57;0.40;;;14.40;99.90;;;;;;5030675;28;20045;-79
2021/05/23 09:07:15;;;;;;;2.35;0.30;;;14.60;99.90;;;;;;5048426;28;20080;-78
2021/05/23 09:09:42;;;;;;;2.42;0.40;;;14.80;99.90;;;;;;5030939;28;20117;-78
2021/05/23 09:12:10;;;;;;;0.95;0.30;;;14.80;99.60;;;;;;5031029;28;20098;-78
2021/05/23 09:14:38;;;;;;;1.75;0.17;;;14.60;99.90;;;;;;5032152;28;20087;-78
2021/05/23 09:17:05;;;;;;;1.10;0.30;;;14.40;99.90;;;;;;5033249;28;20087;-78
2021/05/23 09:19:42;;;;;;;0.98;0.28;;;14.40;99.90;;;;;;5016765;28;20029;-77
2021/05/23 09:22:09;;;;;;;0.52;0.30;;;14.40;99.90;;;;;;5029418;28;20662;-78
2021/05/23 09:25:08;;;;;;;0.20;0.15;;;14.40;99.90;;;;;;5031140;28;20084;-78
2021/05/23 09:27:34;;;;;;;1.05;0.30;;;14.40;99.90;;;;;;5030570;28;20043;-79
2021/05/23 09:30:11;;;;;;;1.20;0.20;;;14.40;99.60;;;;;;5032780;28;20029;-78
2021/05/23 09:32:38;;;;;;;0.10;0.10;;;14.50;99.90;;;;;;5027418;28;20044;-77
2021/05/23 09:35:09;;;;;;;0.20;0.20;;;14.70;99.90;;;;;;5027243;28;20026;-78
2021/05/23 09:37:35;;;;;;;3.15;0.40;;;14.80;98.60;;;;;;5013382;28;20072;-76
2021/05/23 09:40:13;;;;;;;0.73;0.30;;;14.90;99.90;;;;;;5027399;28;20056;-78
2021/05/23 09:42:47;;;;;;;0.52;0.30;;;14.80;99.00;;;;;;5027199;28;20562;-77
2021/05/23 09:45:13;;;;;;;0.90;0.20;;;14.70;99.90;;;;;;5009046;28;20387;-77
2021/05/23 09:47:56;;;;;;;3.08;0.68;;;14.60;99.90;;;;;;5026465;28;20269;-75
2021/05/23 09:50:32;;;;;;;0.28;0.28;;;14.40;99.90;;;;;;5020903;28;20036;-77
2021/05/23 09:52:58;;;;;;;3.40;1.20;;;14.00;99.90;;;;;;5026940;28;21539;-77
2021/05/23 09:55:23;;;;;;;3.63;0.38;;;13.60;99.90;;;;;;5018669;28;20125;-77
2021/05/23 09:57:49;;;;;;;1.35;0.50;;;13.20;99.90;;;;;;5025573;28;20047;-77
2021/05/23 10:00:15;;;;;;;0.52;0.30;;;12.90;99.90;;;;;;5010700;28;20063;-76
2021/05/23 10:02:58;;;;;;;1.20;0.40;;;12.70;99.90;;;;;;5010984;28;20037;-77
2021/05/23 10:05:25;;;;;;;0.22;0.22;;;12.50;99.90;;;;;;5027127;28;20052;-78
2021/05/23 10:07:51;;;;;;;0.60;0.35;;;12.40;99.90;;;;;;5010477;28;20580;-77
2021/05/23 10:10:17;;;;;;;2.58;0.40;;;12.50;99.90;;;;;;5024930;28;20029;-77
2021/05/23 10:12:44;;;;;;;1.70;0.60;;;12.70;99.90;;;;;;5029080;28;20079;-78
2021/05/23 10:15:12;;;;;;;0.68;0.40;;;13.00;99.90;;;;;;5028821;28;20029;-77
2021/05/23 10:17:40;;;;;;;0.50;0.50;;;13.20;99.90;;;;;;5029351;28;20674;-77
2021/05/23 10:20:08;;;;;;;1.27;0.40;;;13.50;99.90;;;;;;5031764;28;20026;-77
2021/05/23 10:22:39;;;;;;;0.75;0.65;;;13.70;99.90;;;;;;5031274;28;20041;-78
2021/05/23 10:25:11;;;;;;;0.73;0.50;;;14.00;99.90;;;;;;5032044;28;20029;-77
2021/05/23 10:27:43;;;;;;;1.30;0.40;;;14.20;99.90;;;;;;5031488;28;20029;-77
2021/05/23 10:30:10;;;;;;;0.22;0.22;;;14.30;99.90;;;;;;5029278;28;20034;-78
2021/05/23 10:32:37;;;;;;;1.73;0.35;;;14.40;99.90;;;;;;5030947;28;20026;-78
2021/05/23 10:35:20;;;;;;;0.30;0.30;;;14.30;99.90;;;;;;5032617;28;20108;-77
2021/05/23 10:37:47;;;;;;;0.65;0.20;;;14.20;99.90;;;;;;5031561;28;20033;-78
2021/05/23 10:40:27;;;;;;;0.98;0.40;;;14.20;99.90;;;;;;5029866;28;20182;-76
2021/05/23 10:42:55;;;;;;;1.58;0.60;;;14.00;99.90;;;;;;5022860;28;20069;-78
2021/05/23 10:45:41;;;;;;;2.38;0.30;;;14.00;99.90;;;;;;5026251;28;20032;-77
2021/05/23 10:48:14;;;;;;;0.20;0.20;;;14.10;99.90;;;;;;5026388;28;20121;-78
2021/05/23 10:50:41;;;;;;;0.20;0.20;;;14.10;99.90;;;;;;5012882;28;20040;-78
2021/05/23 10:53:07;;;;;;;0.68;0.30;;;14.30;99.90;;;;;;5030427;28;20022;-78
2021/05/23 10:55:34;;;;;;;0.73;0.20;;;14.40;99.90;;;;;;5028306;28;20124;-79
2021/05/23 10:58:00;;;;;;;1.00;0.28;;;14.50;99.90;;;;;;5026828;28;20034;-78
2021/05/23 11:00:29;;;;;;;0.65;0.20;;;14.80;99.90;;;;;;5009695;28;20389;-79
2021/05/23 11:02:56;;;;;;;0.95;0.30;;;15.00;99.90;;;;;;5024265;28;20025;-78
2021/05/23 11:05:30;;;;;;;0.65;0.20;;;15.00;99.90;;;;;;5024767;28;20041;-77
2021/05/23 11:08:27;;;;;;;1.55;0.50;;;15.00;99.90;;;;;;5006955;28;20583;-77
2021/05/23 11:10:53;;;;;;;0.35;0.30;;;14.90;99.90;;;;;;5039663;28;20125;-77
2021/05/23 11:13:37;;;;;;;0.30;0.20;;;14.70;99.90;;;;;;5031358;28;20112;-77
2021/05/23 11:16:15;;;;;;;0.40;0.40;;;14.50;99.90;;;;;;5040603;28;20033;-78
2021/05/23 11:18:41;;;;;;;1.25;0.75;;;14.30;99.90;;;;;;5030774;28;20520;-77
2021/05/23 11:21:09;;;;;;;2.15;0.30;;;14.10;99.90;;;;;;5030391;28;20040;-77
2021/05/23 11:23:51;;;;;;;0.60;0.40;;;14.00;99.90;;;;;;5030933;28;20125;-77
2021/05/23 11:26:18;;;;;;;2.00;0.55;;;14.10;99.90;;;;;;5031218;28;20121;-77
2021/05/23 11:28:52;;;;;;;0.75;0.55;;;14.20;99.90;;;;;;5030594;28;20049;-78
2021/05/23 11:31:35;;;;;;;0.45;0.38;;;14.50;99.90;;;;;;5029732;28;20140;-77
2021/05/23 11:34:03;;;;;;;0.47;0.40;;;14.90;99.90;;;;;;5028892;28;20027;-77
2021/05/23 11:36:33;;;;;;;1.88;0.20;;;15.10;99.90;;;;;;5027224;28;20037;-77
2021/05/23 11:39:09;;;;;;;0.30;0.28;;;15.40;99.90;;;;;;5028408;28;20065;-77
2021/05/23 11:41:49;;;;;;;0.70;0.25;;;15.60;99.90;;;;;;5012543;28;20033;-77
2021/05/23 11:44:15;;;;;;;1.60;0.85;;;15.90;99.90;;;;;;5028074;28;20118;-78
2021/05/23 11:46:43;;;;;;;1.75;0.32;;;16.00;99.90;;;;;;5028259;28;20064;-77
2021/05/23 11:49:23;;;;;;;0.45;0.30;;;16.00;99.90;;;;;;5030068;28;20040;-77
2021/05/23 11:51:49;;;;;;;1.35;0.30;;;16.00;99.90;;;;;;5013224;28;20156;-78
2021/05/23 11:54:16;;;;;;;0.20;0.20;;;15.90;99.90;;;;;;5030028;28;20116;-77
2021/05/23 11:56:43;;;;;;;0.38;0.30;;;15.80;99.90;;;;;;5027836;28;20034;-77
2021/05/23 11:59:10;;;;;;;0.20;0.20;;;15.70;99.90;;;;;;5009437;28;20057;-76
2021/05/23 12:01:37;;;;;;;0.82;0.38;;;15.60;99.90;;;;;;5026242;28;20025;-76
2021/05/23 12:04:14;;;;;;;0.20;0.20;;;15.50;99.90;;;;;;5026762;28;20079;-77
2021/05/23 12:06:42;;;;;;;0.93;0.43;;;15.40;99.90;;;;;;5026122;28;20076;-76
2021/05/23 12:09:20;;;;;;;0.30;0.30;;;15.40;99.90;;;;;;5026780;28;20044;-77
2021/05/23 12:11:57;;;;;;;0.30;0.30;;;15.40;99.90;;;;;;5025706;28;20034;-76
2021/05/23 12:14:27;;;;;;;1.90;0.60;;;15.40;99.90;;;;;;5025164;28;20063;-77
2021/05/23 12:17:18;;;;;;;0.20;0.20;;;15.40;99.90;;;;;;5023854;28;20176;-77
2021/05/23 12:19:48;;;;;;;1.45;0.30;;;15.50;99.90;;;;;;5025449;28;20026;-77
2021/05/23 12:22:19;;;;;;;0.35;0.20;;;15.80;99.90;;;;;;5024912;28;20032;-77
2021/05/23 12:24:46;;;;;;;1.65;0.32;;;16.20;99.90;;;;;;5025966;28;20432;-77
2021/05/23 12:27:22;;;;;;;0.60;0.40;;;16.70;99.10;;;;;;5026591;28;20057;-78
2021/05/23 12:29:48;;;;;;;1.65;0.40;;;17.20;99.90;;;;;;5024734;28;20640;-77
2021/05/23 12:32:14;;;;;;;1.13;0.25;;;17.80;99.90;;;;;;5027970;28;20044;-78
2021/05/23 12:34:43;;;;;;;0.43;0.10;;;18.20;93.40;;;;;;5027835;28;20457;-77
2021/05/23 12:37:09;;;;;;;0.50;0.30;;;18.40;90.40;;;;;;5028116;28;20083;-77
2021/05/23 12:39:35;;;;;;;0.43;0.43;;;18.60;92.30;;;;;;5026846;28;20037;-77
2021/05/23 12:42:03;;;;;;;0.30;0.10;;;18.80;94.00;;;;;;5026200;28;20755;-77
2021/05/23 12:44:31;;;;;;;3.05;0.47;;;19.00;90.60;;;;;;5025171;28;20021;-77
2021/05/23 12:47:09;;;;;;;1.95;0.30;;;19.10;83.70;;;;;;5023712;28;20036;-77
2021/05/23 12:49:36;;;;;;;0.90;0.20;;;19.20;85.90;;;;;;5026956;28;20041;-77
2021/05/23 12:52:06;;;;;;;0.65;0.20;;;19.10;87.50;;;;;;5023402;28;20754;-77
2021/05/23 12:54:33;;;;;;;0.63;0.30;;;19.00;78.90;;;;;;5024962;28;20041;-76